sensor_id;sensor_type;location;lat;lon;timestamp;pressure;altitude;pressure_sealevel;temperature;humidity
41202;BME280;26936;50.524;8.684;2022-11-02T00:01:42;99735.09;;;10.71;91.10
41202;BME280;26936;50.524;8.684;2022-11-02T00:04:08;99727.75;;;10.74;90.90
41202;BME280;26936;50.524;8.684;2022-11-02T00:06:34;99735.00;;;10.75;90.70
41202;BME280;26936;50.524;8.684;2022-11-02T00:08:59;99722.00;;;10.65;91.31
41202;BME280;26936;50.524;8.684;2022-11-02T00:11:25;99725.16;;;10.67;91.50
41202;BME280;26936;50.524;8.684;2022-11-02T00:13:50;99720.69;;;10.82;90.77
41202;BME280;26936;50.524;8.684;2022-11-02T00:16:17;99732.50;;;10.77;91.29
41202;BME280;26936;50.524;8.684;2022-11-02T00:18:45;99730.03;;;10.79;90.70
41202;BME280;26936;50.524;8.684;2022-11-02T00:21:12;99722.94;;;10.87;90.37
41202;BME280;26936;50.524;8.684;2022-11-02T00:23:40;99729.28;;;10.91;90.08
41202;BME280;26936;50.524;8.684;2022-11-02T00:26:06;99724.09;;;10.89;90.15
41202;BME280;26936;50.524;8.684;2022-11-02T00:28:31;99724.66;;;10.97;89.13
41202;BME280;26936;50.524;8.684;2022-11-02T00:30:57;99718.13;;;11.00;89.27
41202;BME280;26936;50.524;8.684;2022-11-02T00:33:22;99715.47;;;11.09;88.66
41202;BME280;26936;50.524;8.684;2022-11-02T00:35:47;99721.66;;;11.04;88.67
41202;BME280;26936;50.524;8.684;2022-11-02T00:38:13;99710.03;;;11.02;89.08
41202;BME280;26936;50.524;8.684;2022-11-02T00:40:38;99709.13;;;11.05;88.66
41202;BME280;26936;50.524;8.684;2022-11-02T00:43:03;99719.38;;;10.99;89.44
41202;BME280;26936;50.524;8.684;2022-11-02T00:45:30;99711.72;;;11.00;88.99
41202;BME280;26936;50.524;8.684;2022-11-02T00:47:55;99708.41;;;10.88;89.79
41202;BME280;26936;50.524;8.684;2022-11-02T00:50:20;99705.03;;;10.93;89.85
41202;BME280;26936;50.524;8.684;2022-11-02T00:52:45;99704.03;;;10.87;90.88
41202;BME280;26936;50.524;8.684;2022-11-02T00:55:11;99702.47;;;10.86;90.66
41202;BME280;26936;50.524;8.684;2022-11-02T00:57:38;99703.81;;;10.94;90.46
41202;BME280;26936;50.524;8.684;2022-11-02T01:00:05;99700.41;;;10.87;90.90
41202;BME280;26936;50.524;8.684;2022-11-02T01:02:32;99704.69;;;10.91;90.80
41202;BME280;26936;50.524;8.684;2022-11-02T01:05:01;99704.81;;;10.88;91.12
41202;BME280;26936;50.524;8.684;2022-11-02T01:07:27;99692.31;;;10.89;91.22
41202;BME280;26936;50.524;8.684;2022-11-02T01:09:53;99717.31;;;10.87;91.97
41202;BME280;26936;50.524;8.684;2022-11-02T01:12:18;99699.28;;;10.84;91.98
41202;BME280;26936;50.524;8.684;2022-11-02T01:14:45;99694.00;;;10.86;92.37
41202;BME280;26936;50.524;8.684;2022-11-02T01:17:11;99691.72;;;10.81;92.89
41202;BME280;26936;50.524;8.684;2022-11-02T01:19:36;99696.75;;;10.74;94.10
41202;BME280;26936;50.524;8.684;2022-11-02T01:22:01;99698.03;;;10.85;93.41
41202;BME280;26936;50.524;8.684;2022-11-02T01:24:27;99700.84;;;10.73;94.58
41202;BME280;26936;50.524;8.684;2022-11-02T01:26:52;99704.75;;;10.75;94.33
41202;BME280;26936;50.524;8.684;2022-11-02T01:29:17;99704.09;;;10.71;94.92
41202;BME280;26936;50.524;8.684;2022-11-02T01:31:43;99703.16;;;10.62;95.70
41202;BME280;26936;50.524;8.684;2022-11-02T01:34:10;99695.38;;;10.66;96.13
41202;BME280;26936;50.524;8.684;2022-11-02T01:36:36;99693.03;;;10.64;96.82
41202;BME280;26936;50.524;8.684;2022-11-02T01:39:01;99685.72;;;10.67;96.68
41202;BME280;26936;50.524;8.684;2022-11-02T01:41:26;99696.72;;;10.61;97.14
41202;BME280;26936;50.524;8.684;2022-11-02T01:43:55;99690.63;;;10.50;98.40
41202;BME280;26936;50.524;8.684;2022-11-02T01:46:37;99688.03;;;10.56;98.42
41202;BME280;26936;50.524;8.684;2022-11-02T01:49:08;99693.88;;;10.49;98.39
41202;BME280;26936;50.524;8.684;2022-11-02T01:51:41;99689.69;;;10.41;99.75
41202;BME280;26936;50.524;8.684;2022-11-02T01:54:14;99685.63;;;10.42;99.74
41202;BME280;26936;50.524;8.684;2022-11-02T01:56:42;99680.53;;;10.37;99.88
41202;BME280;26936;50.524;8.684;2022-11-02T01:59:12;99678.66;;;10.46;98.92
41202;BME280;26936;50.524;8.684;2022-11-02T02:01:39;99680.25;;;10.47;99.26
41202;BME280;26936;50.524;8.684;2022-11-02T02:04:05;99678.16;;;10.35;100.00
41202;BME280;26936;50.524;8.684;2022-11-02T02:06:31;99675.34;;;10.35;99.95
41202;BME280;26936;50.524;8.684;2022-11-02T02:09:00;99668.16;;;10.34;100.00
41202;BME280;26936;50.524;8.684;2022-11-02T02:11:35;99670.06;;;10.37;99.94
41202;BME280;26936;50.524;8.684;2022-11-02T02:14:13;99667.25;;;10.37;100.00
41202;BME280;26936;50.524;8.684;2022-11-02T02:19:31;99656.59;;;10.16;100.00
41202;BME280;26936;50.524;8.684;2022-11-02T02:22:15;99652.25;;;10.12;100.00
41202;BME280;26936;50.524;8.684;2022-11-02T02:24:53;99652.78;;;10.07;100.00
41202;BME280;26936;50.524;8.684;2022-11-02T02:30:24;99654.19;;;10.15;100.00
41202;BME280;26936;50.524;8.684;2022-11-02T02:32:56;99649.53;;;10.08;100.00
41202;BME280;26936;50.524;8.684;2022-11-02T02:38:34;99647.69;;;10.18;100.00
41202;BME280;26936;50.524;8.684;2022-11-02T02:41:11;99650.84;;;10.20;100.00
41202;BME280;26936;50.524;8.684;2022-11-02T02:43:43;99654.25;;;10.27;100.00
41202;BME280;26936;50.524;8.684;2022-11-02T02:46:28;99644.22;;;10.26;100.00
41202;BME280;26936;50.524;8.684;2022-11-02T02:48:56;99644.88;;;10.18;100.00
41202;BME280;26936;50.524;8.684;2022-11-02T02:51:28;99648.38;;;10.22;100.00
41202;BME280;26936;50.524;8.684;2022-11-02T02:54:00;99659.09;;;10.27;100.00
41202;BME280;26936;50.524;8.684;2022-11-02T02:56:29;99666.38;;;10.40;100.00
41202;BME280;26936;50.524;8.684;2022-11-02T02:58:59;99662.75;;;10.40;100.00
41202;BME280;26936;50.524;8.684;2022-11-02T03:01:25;99659.53;;;10.54;100.00
41202;BME280;26936;50.524;8.684;2022-11-02T03:03:51;99652.78;;;10.64;99.66
41202;BME280;26936;50.524;8.684;2022-11-02T03:06:21;99660.25;;;10.70;99.58
41202;BME280;26936;50.524;8.684;2022-11-02T03:11:29;99664.22;;;10.85;98.37
41202;BME280;26936;50.524;8.684;2022-11-02T03:19:18;99663.81;;;11.12;96.57
41202;BME280;26936;50.524;8.684;2022-11-02T03:21:49;99651.09;;;11.20;95.75
41202;BME280;26936;50.524;8.684;2022-11-02T03:24:26;99661.91;;;11.22;96.16
41202;BME280;26936;50.524;8.684;2022-11-02T03:30:02;99666.63;;;11.25;96.29
41202;BME280;26936;50.524;8.684;2022-11-02T03:32:37;99676.34;;;11.36;95.24
41202;BME280;26936;50.524;8.684;2022-11-02T03:35:09;99676.56;;;11.29;95.96
41202;BME280;26936;50.524;8.684;2022-11-02T03:37:40;99685.00;;;11.29;95.40
41202;BME280;26936;50.524;8.684;2022-11-02T03:40:17;99680.41;;;11.35;94.61
41202;BME280;26936;50.524;8.684;2022-11-02T03:42:44;99680.63;;;11.41;94.74
41202;BME280;26936;50.524;8.684;2022-11-02T03:45:24;99680.97;;;11.43;94.95
41202;BME280;26936;50.524;8.684;2022-11-02T03:47:53;99682.53;;;11.44;94.71
41202;BME280;26936;50.524;8.684;2022-11-02T03:50:22;99688.75;;;11.51;94.43
41202;BME280;26936;50.524;8.684;2022-11-02T03:52:53;99687.88;;;11.42;95.21
41202;BME280;26936;50.524;8.684;2022-11-02T03:55:28;99686.72;;;11.52;94.33
41202;BME280;26936;50.524;8.684;2022-11-02T03:57:55;99691.69;;;11.48;94.95
41202;BME280;26936;50.524;8.684;2022-11-02T04:00:22;99684.94;;;11.45;94.97
41202;BME280;26936;50.524;8.684;2022-11-02T04:02:53;99695.88;;;11.43;96.05
41202;BME280;26936;50.524;8.684;2022-11-02T04:05:26;99703.28;;;11.25;96.86
41202;BME280;26936;50.524;8.684;2022-11-02T04:07:52;99706.91;;;11.25;97.21
41202;BME280;26936;50.524;8.684;2022-11-02T04:10:38;99706.81;;;11.29;96.85
41202;BME280;26936;50.524;8.684;2022-11-02T04:13:23;99715.13;;;11.20;97.61
41202;BME280;26936;50.524;8.684;2022-11-02T04:16:07;99712.91;;;11.27;97.65
41202;BME280;26936;50.524;8.684;2022-11-02T04:18:32;99713.34;;;11.26;97.69
41202;BME280;26936;50.524;8.684;2022-11-02T04:21:16;99713.91;;;11.33;97.15
41202;BME280;26936;50.524;8.684;2022-11-02T04:23:41;99721.66;;;11.29;97.37
41202;BME280;26936;50.524;8.684;2022-11-02T04:26:26;99729.47;;;11.25;97.65
41202;BME280;26936;50.524;8.684;2022-11-02T04:28:51;99729.91;;;11.24;98.24
41202;BME280;26936;50.524;8.684;2022-11-02T04:31:16;99722.56;;;11.26;98.13
41202;BME280;26936;50.524;8.684;2022-11-02T04:33:42;99718.53;;;11.27;98.05
41202;BME280;26936;50.524;8.684;2022-11-02T04:36:07;99707.72;;;11.26;97.97
41202;BME280;26936;50.524;8.684;2022-11-02T04:38:33;99712.75;;;11.31;98.08
41202;BME280;26936;50.524;8.684;2022-11-02T04:41:04;99719.09;;;11.22;98.57
41202;BME280;26936;50.524;8.684;2022-11-02T04:43:48;99711.63;;;11.16;99.04
41202;BME280;26936;50.524;8.684;2022-11-02T04:46:13;99711.94;;;11.05;99.72
41202;BME280;26936;50.524;8.684;2022-11-02T04:48:38;99713.41;;;10.97;100.00
41202;BME280;26936;50.524;8.684;2022-11-02T04:51:04;99720.84;;;10.91;100.00
41202;BME280;26936;50.524;8.684;2022-11-02T04:53:29;99719.03;;;10.97;100.00
41202;BME280;26936;50.524;8.684;2022-11-02T04:55:55;99731.06;;;10.85;100.00
41202;BME280;26936;50.524;8.684;2022-11-02T04:58:20;99739.75;;;10.90;100.00
41202;BME280;26936;50.524;8.684;2022-11-02T05:00:45;99735.66;;;10.79;100.00
41202;BME280;26936;50.524;8.684;2022-11-02T05:03:10;99736.38;;;10.83;100.00
41202;BME280;26936;50.524;8.684;2022-11-02T05:05:35;99739.56;;;10.69;100.00
41202;BME280;26936;50.524;8.684;2022-11-02T05:08:01;99737.81;;;10.75;100.00
41202;BME280;26936;50.524;8.684;2022-11-02T05:10:26;99740.75;;;10.84;100.00
41202;BME280;26936;50.524;8.684;2022-11-02T05:12:58;99740.19;;;10.76;100.00
41202;BME280;26936;50.524;8.684;2022-11-02T05:15:24;99743.44;;;10.75;100.00
41202;BME280;26936;50.524;8.684;2022-11-02T05:17:50;99750.53;;;10.79;100.00
41202;BME280;26936;50.524;8.684;2022-11-02T05:20:15;99733.69;;;10.63;100.00
41202;BME280;26936;50.524;8.684;2022-11-02T05:22:41;99740.47;;;10.66;100.00
41202;BME280;26936;50.524;8.684;2022-11-02T05:25:10;99733.47;;;10.70;100.00
41202;BME280;26936;50.524;8.684;2022-11-02T05:27:35;99751.06;;;10.62;100.00
41202;BME280;26936;50.524;8.684;2022-11-02T05:30:02;99755.13;;;10.45;100.00
41202;BME280;26936;50.524;8.684;2022-11-02T05:32:27;99755.66;;;10.40;100.00
41202;BME280;26936;50.524;8.684;2022-11-02T05:34:52;99761.47;;;10.49;100.00
41202;BME280;26936;50.524;8.684;2022-11-02T05:37:18;99756.19;;;10.35;100.00
41202;BME280;26936;50.524;8.684;2022-11-02T05:39:43;99757.69;;;10.39;100.00
41202;BME280;26936;50.524;8.684;2022-11-02T05:42:08;99762.09;;;10.40;100.00
41202;BME280;26936;50.524;8.684;2022-11-02T05:44:34;99762.53;;;10.39;100.00
41202;BME280;26936;50.524;8.684;2022-11-02T05:46:59;99766.56;;;10.38;100.00
41202;BME280;26936;50.524;8.684;2022-11-02T05:49:24;99774.03;;;10.44;100.00
41202;BME280;26936;50.524;8.684;2022-11-02T05:51:50;99779.84;;;10.53;100.00
41202;BME280;26936;50.524;8.684;2022-11-02T05:54:16;99777.66;;;10.45;100.00
41202;BME280;26936;50.524;8.684;2022-11-02T05:56:41;99780.13;;;10.43;100.00
41202;BME280;26936;50.524;8.684;2022-11-02T05:59:07;99783.09;;;10.52;100.00
41202;BME280;26936;50.524;8.684;2022-11-02T06:01:32;99783.56;;;10.50;100.00
41202;BME280;26936;50.524;8.684;2022-11-02T06:03:57;99784.13;;;10.58;100.00
41202;BME280;26936;50.524;8.684;2022-11-02T06:06:22;99780.72;;;10.50;100.00
41202;BME280;26936;50.524;8.684;2022-11-02T06:08:48;99791.34;;;10.59;100.00
41202;BME280;26936;50.524;8.684;2022-11-02T06:11:14;99798.66;;;10.56;100.00
41202;BME280;26936;50.524;8.684;2022-11-02T06:13:40;99796.22;;;10.58;100.00
41202;BME280;26936;50.524;8.684;2022-11-02T06:16:07;99802.59;;;10.59;100.00
41202;BME280;26936;50.524;8.684;2022-11-02T06:18:34;99799.88;;;10.71;100.00
41202;BME280;26936;50.524;8.684;2022-11-02T06:21:00;99800.00;;;10.80;100.00
41202;BME280;26936;50.524;8.684;2022-11-02T06:23:26;99801.75;;;10.62;100.00
41202;BME280;26936;50.524;8.684;2022-11-02T06:25:53;99806.75;;;10.54;100.00
41202;BME280;26936;50.524;8.684;2022-11-02T06:28:19;99813.03;;;10.62;100.00
41202;BME280;26936;50.524;8.684;2022-11-02T06:30:45;99812.91;;;10.65;100.00
41202;BME280;26936;50.524;8.684;2022-11-02T06:33:10;99808.25;;;10.59;100.00
41202;BME280;26936;50.524;8.684;2022-11-02T06:35:36;99820.41;;;10.56;100.00
41202;BME280;26936;50.524;8.684;2022-11-02T06:38:01;99820.66;;;10.61;100.00
41202;BME280;26936;50.524;8.684;2022-11-02T06:40:26;99819.88;;;10.61;100.00
41202;BME280;26936;50.524;8.684;2022-11-02T06:42:56;99832.72;;;10.62;100.00
41202;BME280;26936;50.524;8.684;2022-11-02T06:45:22;99824.47;;;10.55;100.00
41202;BME280;26936;50.524;8.684;2022-11-02T06:47:48;99833.94;;;10.61;100.00
41202;BME280;26936;50.524;8.684;2022-11-02T06:50:13;99842.75;;;10.63;100.00
41202;BME280;26936;50.524;8.684;2022-11-02T06:52:46;99830.78;;;10.59;100.00
41202;BME280;26936;50.524;8.684;2022-11-02T06:55:12;99842.75;;;10.63;99.76
41202;BME280;26936;50.524;8.684;2022-11-02T06:57:39;99832.38;;;10.60;99.76
41202;BME280;26936;50.524;8.684;2022-11-02T07:00:07;99846.09;;;10.58;100.00
41202;BME280;26936;50.524;8.684;2022-11-02T07:02:33;99847.59;;;10.62;99.89
41202;BME280;26936;50.524;8.684;2022-11-02T07:04:58;99847.69;;;10.59;99.71
41202;BME280;26936;50.524;8.684;2022-11-02T07:07:24;99850.31;;;10.66;99.79
41202;BME280;26936;50.524;8.684;2022-11-02T07:09:49;99862.41;;;10.50;100.00
41202;BME280;26936;50.524;8.684;2022-11-02T07:12:14;99854.22;;;10.40;100.00
41202;BME280;26936;50.524;8.684;2022-11-02T07:14:40;99850.88;;;10.45;100.00
41202;BME280;26936;50.524;8.684;2022-11-02T07:17:05;99860.47;;;10.47;100.00
41202;BME280;26936;50.524;8.684;2022-11-02T07:19:30;99873.56;;;10.38;100.00
41202;BME280;26936;50.524;8.684;2022-11-02T07:21:56;99867.69;;;10.48;100.00
41202;BME280;26936;50.524;8.684;2022-11-02T07:24:21;99871.09;;;10.56;100.00
41202;BME280;26936;50.524;8.684;2022-11-02T07:26:47;99874.53;;;10.79;99.55
41202;BME280;26936;50.524;8.684;2022-11-02T07:29:14;99877.06;;;10.74;99.88
41202;BME280;26936;50.524;8.684;2022-11-02T07:31:39;99873.53;;;10.86;99.13
41202;BME280;26936;50.524;8.684;2022-11-02T07:34:04;99879.41;;;10.91;98.79
41202;BME280;26936;50.524;8.684;2022-11-02T07:36:29;99886.34;;;11.03;98.50
41202;BME280;26936;50.524;8.684;2022-11-02T07:38:55;99882.53;;;11.10;97.85
41202;BME280;26936;50.524;8.684;2022-11-02T07:41:20;99888.63;;;11.08;97.73
41202;BME280;26936;50.524;8.684;2022-11-02T07:43:45;99902.81;;;11.21;97.26
41202;BME280;26936;50.524;8.684;2022-11-02T07:46:11;99904.91;;;11.17;97.47
41202;BME280;26936;50.524;8.684;2022-11-02T07:48:36;99896.50;;;11.29;96.90
41202;BME280;26936;50.524;8.684;2022-11-02T07:51:01;99905.13;;;11.38;96.72
41202;BME280;26936;50.524;8.684;2022-11-02T07:53:27;99910.44;;;11.49;96.40
41202;BME280;26936;50.524;8.684;2022-11-02T07:55:52;99914.97;;;11.46;96.11
41202;BME280;26936;50.524;8.684;2022-11-02T07:58:17;99919.25;;;11.51;96.23
41202;BME280;26936;50.524;8.684;2022-11-02T08:00:42;99917.22;;;11.51;96.09
41202;BME280;26936;50.524;8.684;2022-11-02T08:03:09;99906.91;;;11.32;96.95
41202;BME280;26936;50.524;8.684;2022-11-02T08:05:37;99915.78;;;11.59;95.88
41202;BME280;26936;50.524;8.684;2022-11-02T08:08:05;99916.75;;;11.81;94.77
41202;BME280;26936;50.524;8.684;2022-11-02T08:10:32;99920.38;;;11.82;93.86
41202;BME280;26936;50.524;8.684;2022-11-02T08:12:57;99923.56;;;11.96;93.05
41202;BME280;26936;50.524;8.684;2022-11-02T08:15:23;99925.53;;;12.24;91.89
41202;BME280;26936;50.524;8.684;2022-11-02T08:18:08;99927.56;;;12.49;90.32
41202;BME280;26936;50.524;8.684;2022-11-02T08:20:35;99932.16;;;12.81;87.74
41202;BME280;26936;50.524;8.684;2022-11-02T08:23:01;99922.53;;;13.03;86.14
41202;BME280;26936;50.524;8.684;2022-11-02T08:25:26;99932.25;;;13.36;83.76
41202;BME280;26936;50.524;8.684;2022-11-02T08:27:58;99935.19;;;13.67;80.60
41202;BME280;26936;50.524;8.684;2022-11-02T08:30:26;99938.91;;;14.29;78.04
41202;BME280;26936;50.524;8.684;2022-11-02T08:32:51;99946.03;;;14.73;74.57
41202;BME280;26936;50.524;8.684;2022-11-02T08:35:17;99933.94;;;14.99;72.06
41202;BME280;26936;50.524;8.684;2022-11-02T08:37:42;99940.00;;;15.38;69.59
41202;BME280;26936;50.524;8.684;2022-11-02T08:40:08;99934.34;;;15.56;67.99
41202;BME280;26936;50.524;8.684;2022-11-02T08:42:33;99936.81;;;15.99;66.06
41202;BME280;26936;50.524;8.684;2022-11-02T08:44:58;99927.66;;;16.64;64.66
41202;BME280;26936;50.524;8.684;2022-11-02T08:47:24;99949.41;;;17.23;62.47
41202;BME280;26936;50.524;8.684;2022-11-02T08:49:49;99941.78;;;17.91;59.50
41202;BME280;26936;50.524;8.684;2022-11-02T08:52:16;99945.84;;;18.42;57.55
41202;BME280;26936;50.524;8.684;2022-11-02T08:54:42;99952.09;;;18.75;55.64
41202;BME280;26936;50.524;8.684;2022-11-02T08:57:07;99943.59;;;18.17;57.48
41202;BME280;26936;50.524;8.684;2022-11-02T08:59:32;99941.00;;;18.34;57.40
41202;BME280;26936;50.524;8.684;2022-11-02T09:01:58;99950.97;;;18.53;56.23
41202;BME280;26936;50.524;8.684;2022-11-02T09:04:23;99958.22;;;18.25;56.93
41202;BME280;26936;50.524;8.684;2022-11-02T09:06:48;99951.91;;;17.06;59.46
41202;BME280;26936;50.524;8.684;2022-11-02T09:09:13;99948.69;;;16.57;61.15
41202;BME280;26936;50.524;8.684;2022-11-02T09:11:39;99945.34;;;15.99;63.26
41202;BME280;26936;50.524;8.684;2022-11-02T09:14:04;99950.25;;;15.89;65.10
41202;BME280;26936;50.524;8.684;2022-11-02T09:16:31;99952.19;;;16.52;63.41
41202;BME280;26936;50.524;8.684;2022-11-02T09:18:56;99947.75;;;16.84;61.79
41202;BME280;26936;50.524;8.684;2022-11-02T09:21:21;99952.31;;;16.58;61.30
41202;BME280;26936;50.524;8.684;2022-11-02T09:23:46;99958.66;;;16.44;62.09
41202;BME280;26936;50.524;8.684;2022-11-02T09:26:14;99962.03;;;16.24;63.17
41202;BME280;26936;50.524;8.684;2022-11-02T09:28:39;99960.47;;;16.14;63.46
41202;BME280;26936;50.524;8.684;2022-11-02T09:31:04;99963.34;;;16.97;62.50
41202;BME280;26936;50.524;8.684;2022-11-02T09:33:30;99958.81;;;17.62;58.73
41202;BME280;26936;50.524;8.684;2022-11-02T09:36:01;99963.81;;;18.05;57.65
41202;BME280;26936;50.524;8.684;2022-11-02T09:38:26;99967.25;;;18.09;57.41
41202;BME280;26936;50.524;8.684;2022-11-02T09:46:18;99969.25;;;19.10;54.29
41202;BME280;26936;50.524;8.684;2022-11-02T09:48:49;99974.34;;;18.57;54.96
41202;BME280;26936;50.524;8.684;2022-11-02T09:51:30;99970.66;;;17.84;55.93
41202;BME280;26936;50.524;8.684;2022-11-02T09:54:04;99976.88;;;18.26;55.48
41202;BME280;26936;50.524;8.684;2022-11-02T09:56:33;99971.00;;;18.58;54.44
41202;BME280;26936;50.524;8.684;2022-11-02T09:59:01;99971.41;;;18.66;55.34
41202;BME280;26936;50.524;8.684;2022-11-02T10:01:37;99977.88;;;18.66;54.23
41202;BME280;26936;50.524;8.684;2022-11-02T10:07:55;99987.22;;;19.16;53.31
41202;BME280;26936;50.524;8.684;2022-11-02T10:10:36;99991.50;;;19.81;50.52
41202;BME280;26936;50.524;8.684;2022-11-02T10:13:32;99982.06;;;20.46;48.75
41202;BME280;26936;50.524;8.684;2022-11-02T10:16:09;99998.59;;;20.31;48.88
41202;BME280;26936;50.524;8.684;2022-11-02T10:18:36;99996.16;;;19.78;50.06
41202;BME280;26936;50.524;8.684;2022-11-02T10:21:28;100002.91;;;20.47;49.58
41202;BME280;26936;50.524;8.684;2022-11-02T10:23:55;100012.72;;;20.40;49.23
41202;BME280;26936;50.524;8.684;2022-11-02T10:26:28;100014.78;;;19.94;51.11
41202;BME280;26936;50.524;8.684;2022-11-02T10:29:19;100025.44;;;18.55;52.69
41202;BME280;26936;50.524;8.684;2022-11-02T10:31:47;100035.47;;;17.74;54.34
41202;BME280;26936;50.524;8.684;2022-11-02T10:34:21;100027.63;;;17.36;56.56
41202;BME280;26936;50.524;8.684;2022-11-02T10:39:29;100022.13;;;17.00;58.61
41202;BME280;26936;50.524;8.684;2022-11-02T10:47:57;100034.03;;;16.21;60.05
41202;BME280;26936;50.524;8.684;2022-11-02T10:50:40;100029.75;;;16.25;59.95
41202;BME280;26936;50.524;8.684;2022-11-02T10:53:17;100036.84;;;16.30;60.02
41202;BME280;26936;50.524;8.684;2022-11-02T10:55:58;100042.44;;;15.88;60.44
41202;BME280;26936;50.524;8.684;2022-11-02T10:58:27;100035.94;;;15.61;62.16
41202;BME280;26936;50.524;8.684;2022-11-02T11:01:08;100043.72;;;15.30;63.04
41202;BME280;26936;50.524;8.684;2022-11-02T11:03:52;100039.28;;;14.80;65.61
41202;BME280;26936;50.524;8.684;2022-11-02T11:06:17;100024.63;;;14.72;65.41
41202;BME280;26936;50.524;8.684;2022-11-02T11:08:45;100023.22;;;14.77;65.88
41202;BME280;26936;50.524;8.684;2022-11-02T11:13:40;100014.00;;;16.24;61.01
41202;BME280;26936;50.524;8.684;2022-11-02T11:16:07;100021.78;;;16.75;59.33
41202;BME280;26936;50.524;8.684;2022-11-02T11:18:33;100019.91;;;17.04;57.31
41202;BME280;26936;50.524;8.684;2022-11-02T11:20:59;100016.06;;;17.87;56.20
41202;BME280;26936;50.524;8.684;2022-11-02T11:23:25;100007.09;;;17.32;56.00
41202;BME280;26936;50.524;8.684;2022-11-02T11:26:27;100006.47;;;17.99;55.69
41202;BME280;26936;50.524;8.684;2022-11-02T11:28:55;100004.25;;;18.76;54.16
41202;BME280;26936;50.524;8.684;2022-11-02T11:31:21;100009.16;;;18.90;51.32
41202;BME280;26936;50.524;8.684;2022-11-02T11:33:55;99997.44;;;18.88;51.05
41202;BME280;26936;50.524;8.684;2022-11-02T11:36:26;99998.31;;;18.79;51.48
41202;BME280;26936;50.524;8.684;2022-11-02T11:38:55;99992.56;;;19.43;51.28
41202;BME280;26936;50.524;8.684;2022-11-02T11:41:23;99987.88;;;18.91;52.30
41202;BME280;26936;50.524;8.684;2022-11-02T11:43:50;100001.91;;;18.45;53.87
41202;BME280;26936;50.524;8.684;2022-11-02T11:46:17;100002.16;;;18.18;54.28
41202;BME280;26936;50.524;8.684;2022-11-02T11:48:49;100000.47;;;17.97;54.40
41202;BME280;26936;50.524;8.684;2022-11-02T11:51:32;100001.38;;;18.32;54.50
41202;BME280;26936;50.524;8.684;2022-11-02T11:54:23;100006.41;;;18.52;54.79
41202;BME280;26936;50.524;8.684;2022-11-02T11:56:52;100004.56;;;18.63;53.16
41202;BME280;26936;50.524;8.684;2022-11-02T11:59:59;99989.69;;;18.16;52.18
41202;BME280;26936;50.524;8.684;2022-11-02T12:02:31;99988.69;;;18.19;53.17
41202;BME280;26936;50.524;8.684;2022-11-02T12:05:14;99990.63;;;18.13;52.91
41202;BME280;26936;50.524;8.684;2022-11-02T12:08:05;99991.88;;;17.83;53.64
41202;BME280;26936;50.524;8.684;2022-11-02T12:10:40;99993.72;;;17.47;51.77
41202;BME280;26936;50.524;8.684;2022-11-02T12:19:29;99988.47;;;17.55;52.54
41202;BME280;26936;50.524;8.684;2022-11-02T12:31:18;99985.66;;;17.46;53.60
41202;BME280;26936;50.524;8.684;2022-11-02T12:34:21;99976.81;;;17.68;54.24
41202;BME280;26936;50.524;8.684;2022-11-02T12:39:31;99983.13;;;17.72;52.94
41202;BME280;26936;50.524;8.684;2022-11-02T12:44:44;99984.06;;;17.69;53.19
41202;BME280;26936;50.524;8.684;2022-11-02T12:55:39;99995.34;;;16.83;57.37
41202;BME280;26936;50.524;8.684;2022-11-02T12:58:27;100004.38;;;16.82;57.12
41202;BME280;26936;50.524;8.684;2022-11-02T13:01:42;99991.63;;;16.68;57.26
41202;BME280;26936;50.524;8.684;2022-11-02T13:03:50;99986.00;;;16.50;58.50
41202;BME280;26936;50.524;8.684;2022-11-02T13:06:28;99979.69;;;16.46;58.45
41202;BME280;26936;50.524;8.684;2022-11-02T13:09:24;99982.34;;;16.50;56.85
41202;BME280;26936;50.524;8.684;2022-11-02T13:12:05;99975.88;;;16.40;58.44
41202;BME280;26936;50.524;8.684;2022-11-02T13:14:38;99984.97;;;16.11;58.44
41202;BME280;26936;50.524;8.684;2022-11-02T13:17:44;99981.50;;;15.98;59.01
41202;BME280;26936;50.524;8.684;2022-11-02T13:20:44;99978.19;;;15.64;60.12
41202;BME280;26936;50.524;8.684;2022-11-02T13:25:57;99978.03;;;15.49;60.91
41202;BME280;26936;50.524;8.684;2022-11-02T13:28:43;99980.72;;;15.53;59.41
41202;BME280;26936;50.524;8.684;2022-11-02T13:31:15;99967.50;;;15.68;58.72
41202;BME280;26936;50.524;8.684;2022-11-02T13:33:47;99969.19;;;15.83;57.63
41202;BME280;26936;50.524;8.684;2022-11-02T13:36:14;99965.22;;;15.99;58.44
41202;BME280;26936;50.524;8.684;2022-11-02T13:41:37;99960.66;;;16.01;59.58
41202;BME280;26936;50.524;8.684;2022-11-02T13:49:30;99965.09;;;15.84;60.07
41202;BME280;26936;50.524;8.684;2022-11-02T13:52:03;99964.47;;;15.71;60.04
41202;BME280;26936;50.524;8.684;2022-11-02T13:54:34;99967.63;;;15.46;61.16
41202;BME280;26936;50.524;8.684;2022-11-02T13:57:00;99966.97;;;15.33;61.39
41202;BME280;26936;50.524;8.684;2022-11-02T13:59:32;99973.59;;;15.30;62.12
41202;BME280;26936;50.524;8.684;2022-11-02T14:02:00;99975.00;;;15.35;61.50
41202;BME280;26936;50.524;8.684;2022-11-02T14:04:28;99972.47;;;15.28;61.90
41202;BME280;26936;50.524;8.684;2022-11-02T14:07:03;99961.28;;;15.33;61.60
41202;BME280;26936;50.524;8.684;2022-11-02T14:09:41;99964.88;;;15.34;60.40
41202;BME280;26936;50.524;8.684;2022-11-02T14:25:56;99966.75;;;15.10;59.58
41202;BME280;26936;50.524;8.684;2022-11-02T14:28:31;99972.91;;;15.08;59.48
41202;BME280;26936;50.524;8.684;2022-11-02T14:33:54;99978.38;;;14.93;59.75
41202;BME280;26936;50.524;8.684;2022-11-02T14:47:29;99980.81;;;14.73;59.17
41202;BME280;26936;50.524;8.684;2022-11-02T14:50:07;99978.44;;;14.72;58.79
41202;BME280;26936;50.524;8.684;2022-11-02T14:52:39;99980.13;;;14.60;58.98
41202;BME280;26936;50.524;8.684;2022-11-02T14:57:54;99977.63;;;14.62;59.06
41202;BME280;26936;50.524;8.684;2022-11-02T15:00:24;99976.53;;;14.60;59.67
41202;BME280;26936;50.524;8.684;2022-11-02T15:02:52;99971.94;;;14.53;60.24